createdAt,value
2022-08-19T00:01:59.552Z,2.70
2022-08-19T00:04:35.041Z,3.35
2022-08-19T00:07:01.601Z,3.25
2022-08-19T00:09:28.774Z,3.33
2022-08-19T00:11:58.701Z,3.10
2022-08-19T00:14:27.890Z,3.67
2022-08-19T00:16:55.770Z,3.30
2022-08-19T00:19:23.975Z,3.62
2022-08-19T00:21:51.274Z,3.65
2022-08-19T00:24:17.838Z,3.37
2022-08-19T00:26:45.914Z,3.33
2022-08-19T00:29:15.437Z,3.30
2022-08-19T00:31:43.266Z,3.53
2022-08-19T00:34:12.077Z,3.50
2022-08-19T00:36:39.562Z,3.55
2022-08-19T00:39:06.393Z,3.97
2022-08-19T00:41:33.134Z,3.20
2022-08-19T00:44:27.037Z,4.47
2022-08-19T00:46:58.143Z,4.50
2022-08-19T00:49:52.469Z,3.40
2022-08-19T00:52:29.946Z,3.62
2022-08-19T00:54:58.309Z,4.05
2022-08-19T00:57:37.145Z,3.08
2022-08-19T01:00:11.506Z,3.60
2022-08-19T01:02:39.029Z,3.83
2022-08-19T01:05:15.353Z,3.62
2022-08-19T01:07:42.666Z,4.30
2022-08-19T01:10:16.516Z,3.65
2022-08-19T01:12:43.660Z,3.72
2022-08-19T01:15:14.948Z,3.22
2022-08-19T01:17:43.276Z,3.60
2022-08-19T01:20:21.645Z,3.30
2022-08-19T01:22:55.765Z,3.60
2022-08-19T01:25:41.586Z,3.75
2022-08-19T01:28:10.585Z,3.78
2022-08-19T01:30:37.866Z,4.18
2022-08-19T01:33:05.806Z,4.00
2022-08-19T01:35:33.248Z,3.83
2022-08-19T01:38:21.981Z,3.70
2022-08-19T01:40:48.519Z,3.50
2022-08-19T01:43:15.506Z,3.83
2022-08-19T01:45:42.308Z,3.75
2022-08-19T01:48:09.337Z,3.40
2022-08-19T01:50:36.635Z,4.15
2022-08-19T01:53:09.786Z,4.03
2022-08-19T01:55:41.736Z,3.58
2022-08-19T01:58:19.676Z,3.03
2022-08-19T02:00:47.748Z,3.45
2022-08-19T02:03:14.988Z,3.42
2022-08-19T02:05:43.496Z,3.47
2022-08-19T02:08:11.039Z,3.83
2022-08-19T02:10:42.946Z,4.28
2022-08-19T02:13:12.780Z,3.62
2022-08-19T02:15:39.626Z,3.78
2022-08-19T02:18:08.449Z,3.47
2022-08-19T02:20:37.621Z,3.45
2022-08-19T02:23:04.486Z,3.42
2022-08-19T02:25:31.205Z,3.72
2022-08-19T02:27:57.733Z,4.03
2022-08-19T02:30:25.008Z,4.03
2022-08-19T02:32:53.012Z,3.30
2022-08-19T02:35:20.288Z,3.55
2022-08-19T02:38:56.746Z,3.60
2022-08-19T02:41:28.381Z,4.18
2022-08-19T02:44:26.667Z,3.97
2022-08-19T02:46:57.278Z,4.45
2022-08-19T02:49:23.876Z,4.47
2022-08-19T02:51:50.383Z,3.55
2022-08-19T02:54:16.936Z,3.70
2022-08-19T02:56:45.175Z,4.37
2022-08-19T02:59:12.168Z,3.87
2022-08-19T03:01:42.069Z,3.95
2022-08-19T03:04:12.157Z,4.28
2022-08-19T03:06:41.913Z,4.22
2022-08-19T03:09:09.992Z,3.95
2022-08-19T03:11:37.789Z,3.05
2022-08-19T03:14:07.654Z,3.20
2022-08-19T03:16:51.302Z,3.65
2022-08-19T03:19:21.441Z,2.95
2022-08-19T03:21:48.623Z,3.25
2022-08-19T03:24:17.541Z,2.92
2022-08-19T03:26:48.747Z,3.92
2022-08-19T03:29:25.879Z,3.65
2022-08-19T03:32:04.623Z,4.12
2022-08-19T03:34:34.803Z,3.53
2022-08-19T03:37:14.695Z,4.35
2022-08-19T03:39:42.452Z,4.37
2022-08-19T03:42:38.330Z,4.40
2022-08-19T03:45:15.116Z,3.75
2022-08-19T03:47:41.664Z,3.22
2022-08-19T03:50:09.297Z,2.65
2022-08-19T03:52:36.235Z,2.70
2022-08-19T03:55:03.920Z,2.22
2022-08-19T03:57:32.054Z,2.42
2022-08-19T04:00:13.098Z,2.47
2022-08-19T04:02:42.145Z,2.47
2022-08-19T04:05:09.132Z,2.03
2022-08-19T04:07:35.855Z,2.55
2022-08-19T04:10:04.046Z,2.00
2022-08-19T04:12:33.244Z,2.15
2022-08-19T04:14:59.745Z,2.35
2022-08-19T04:17:26.284Z,2.17
2022-08-19T04:19:52.809Z,2.83
2022-08-19T04:22:20.039Z,2.03
2022-08-19T04:24:46.584Z,1.98
2022-08-19T04:27:13.123Z,2.00
2022-08-19T04:29:40.641Z,2.60
2022-08-19T04:32:08.626Z,2.15
2022-08-19T04:34:37.067Z,1.83
2022-08-19T04:37:35.679Z,2.40
2022-08-19T04:40:24.074Z,2.17
2022-08-19T04:42:50.620Z,2.12
2022-08-19T04:45:17.402Z,2.28
2022-08-19T04:47:47.425Z,2.15
2022-08-19T04:50:25.854Z,2.20
2022-08-19T04:52:52.831Z,2.20
2022-08-19T04:55:19.592Z,2.22
2022-08-19T04:57:46.127Z,2.35
2022-08-19T05:00:13.385Z,1.90
2022-08-19T05:02:40.065Z,2.10
2022-08-19T05:05:07.935Z,2.10
2022-08-19T05:07:34.841Z,2.25
2022-08-19T05:10:01.537Z,2.20
2022-08-19T05:12:29.558Z,2.20
2022-08-19T05:14:58.035Z,2.47
2022-08-19T05:17:29.446Z,2.17
2022-08-19T05:20:16.165Z,2.42
2022-08-19T05:22:47.074Z,2.08
2022-08-19T05:25:20.164Z,2.08
2022-08-19T05:27:48.349Z,2.22
2022-08-19T05:30:15.832Z,2.08
2022-08-19T05:32:42.984Z,2.53
2022-08-19T05:35:09.983Z,2.22
2022-08-19T05:37:36.517Z,1.87
2022-08-19T05:40:04.618Z,2.70
2022-08-19T05:42:31.227Z,2.10
2022-08-19T05:44:57.761Z,2.47
2022-08-19T05:47:24.348Z,2.10
2022-08-19T05:49:51.230Z,1.77
2022-08-19T05:52:18.928Z,2.03
2022-08-19T05:54:48.038Z,2.25
2022-08-19T05:57:19.415Z,2.33
2022-08-19T05:59:52.715Z,2.30
2022-08-19T06:02:20.422Z,1.75
2022-08-19T06:04:47.149Z,2.37
2022-08-19T06:07:13.749Z,2.30
2022-08-19T06:09:41.301Z,2.37
2022-08-19T06:12:10.650Z,2.30
2022-08-19T06:14:41.657Z,2.50
2022-08-19T06:17:08.672Z,2.85
2022-08-19T06:19:40.962Z,2.30
2022-08-19T06:22:08.419Z,2.87
2022-08-19T06:24:35.666Z,2.15
2022-08-19T06:27:05.836Z,2.30
2022-08-19T06:29:32.728Z,1.92
2022-08-19T06:32:03.201Z,2.17
2022-08-19T06:34:34.386Z,1.70
2022-08-19T06:37:02.175Z,2.00
2022-08-19T06:39:34.349Z,1.87
2022-08-19T06:42:06.508Z,2.00
2022-08-19T06:44:42.850Z,1.73
2022-08-19T06:47:23.657Z,1.67
2022-08-19T06:50:03.008Z,1.83
2022-08-19T06:52:36.518Z,2.05
2022-08-19T06:55:06.008Z,2.33
2022-08-19T06:57:34.632Z,1.83
2022-08-19T07:00:01.562Z,1.37
2022-08-19T07:02:28.111Z,1.02
2022-08-19T07:04:57.634Z,1.33
2022-08-19T07:07:24.390Z,1.10
2022-08-19T07:09:58.468Z,1.20
2022-08-19T07:12:35.691Z,1.08
2022-08-19T07:15:06.296Z,1.37
2022-08-19T07:17:34.399Z,1.23
2022-08-19T07:20:06.781Z,1.30
2022-08-19T07:22:35.188Z,1.10
2022-08-19T07:25:06.125Z,3.45
2022-08-19T07:27:33.583Z,2.10
2022-08-19T07:30:00.612Z,1.77
2022-08-19T07:32:27.365Z,1.50
2022-08-19T07:34:54.846Z,1.30
2022-08-19T07:37:21.402Z,1.67
2022-08-19T07:39:48.123Z,1.52
2022-08-19T07:42:14.991Z,1.70
2022-08-19T07:44:42.594Z,1.60
2022-08-19T07:47:58.578Z,1.42
2022-08-19T07:50:25.469Z,1.70
2022-08-19T07:52:51.985Z,1.40
2022-08-19T07:55:41.602Z,1.70
2022-08-19T07:58:14.980Z,1.83
2022-08-19T08:00:43.388Z,1.50
2022-08-19T08:03:15.288Z,1.33
2022-08-19T08:06:01.452Z,1.70
2022-08-19T08:08:37.476Z,1.58
2022-08-19T08:11:12.669Z,1.58
2022-08-19T08:13:42.479Z,1.73
2022-08-19T08:16:10.221Z,1.52
2022-08-19T08:18:42.465Z,1.25
2022-08-19T08:21:09.204Z,1.65
2022-08-19T08:23:36.280Z,1.70
2022-08-19T08:26:06.295Z,1.67
2022-08-19T08:28:32.890Z,1.33
2022-08-19T08:30:59.557Z,1.40
2022-08-19T08:33:33.205Z,1.87
2022-08-19T08:36:08.410Z,1.40
2022-08-19T08:38:40.631Z,1.40
2022-08-19T08:42:40.917Z,1.52
2022-08-19T08:45:18.114Z,1.23
2022-08-19T08:47:52.869Z,1.60
2022-08-19T08:50:29.003Z,1.37
2022-08-19T08:52:58.561Z,1.75
2022-08-19T08:55:36.685Z,1.45
2022-08-19T08:58:42.144Z,1.20
2022-08-19T09:01:12.162Z,1.58
2022-08-19T09:03:41.660Z,1.75
2022-08-19T09:08:07.167Z,1.80
2022-08-19T09:10:57.651Z,1.30
2022-08-19T09:14:51.447Z,1.50
2022-08-19T09:17:30.685Z,1.20
2022-08-19T09:20:23.621Z,1.25
2022-08-19T09:22:52.735Z,1.95
2022-08-19T09:25:27.065Z,1.60
2022-08-19T09:28:05.816Z,1.20
2022-08-19T09:30:42.409Z,1.52
2022-08-19T09:33:09.078Z,1.48
2022-08-19T09:35:49.786Z,1.45
2022-08-19T09:38:21.124Z,1.77
2022-08-19T09:40:47.693Z,1.62
2022-08-19T09:43:14.211Z,1.42
2022-08-19T09:45:40.932Z,1.70
2022-08-19T09:48:07.541Z,1.80
2022-08-19T09:50:38.597Z,1.95
2022-08-19T09:53:07.841Z,1.70
2022-08-19T09:55:34.372Z,1.80
2022-08-19T09:58:02.013Z,1.67
2022-08-19T10:00:30.438Z,2.00
2022-08-19T10:02:56.942Z,2.10
2022-08-19T10:05:42.345Z,2.47
2022-08-19T10:08:13.441Z,1.60
2022-08-19T10:10:46.332Z,1.50
2022-08-19T10:13:16.732Z,1.70
2022-08-19T10:15:47.465Z,2.00
2022-08-19T10:18:17.944Z,1.83
2022-08-19T10:20:46.259Z,1.95
2022-08-19T10:23:21.158Z,2.53
2022-08-19T10:25:49.321Z,2.20
2022-08-19T10:28:19.449Z,2.05
2022-08-19T10:30:47.248Z,2.30
2022-08-19T10:33:15.386Z,2.47
2022-08-19T10:36:15.285Z,2.95
2022-08-19T10:38:52.270Z,2.55
2022-08-19T10:41:27.489Z,2.97
2022-08-19T10:43:58.227Z,2.53
2022-08-19T10:46:43.546Z,2.60
2022-08-19T10:49:13.290Z,2.62
2022-08-19T10:51:59.863Z,2.60
2022-08-19T10:56:30.344Z,2.85
2022-08-19T10:58:58.165Z,2.60
2022-08-19T11:01:26.655Z,2.70
2022-08-19T11:03:53.216Z,2.60
2022-08-19T11:06:21.100Z,3.22
2022-08-19T11:08:47.641Z,2.50
2022-08-19T11:11:14.267Z,2.80
2022-08-19T11:13:42.982Z,2.65
2022-08-19T11:16:15.308Z,2.60
2022-08-19T11:18:47.254Z,2.65
2022-08-19T11:21:22.531Z,2.67
2022-08-19T11:23:59.535Z,2.60
2022-08-19T11:26:26.778Z,2.70
2022-08-19T11:28:55.126Z,2.80
2022-08-19T11:31:28.775Z,2.65
2022-08-19T11:33:59.938Z,2.53
2022-08-19T11:36:27.484Z,2.50
2022-08-19T11:38:54.305Z,2.80
2022-08-19T11:41:23.937Z,2.85
2022-08-19T11:43:54.061Z,2.90
2022-08-19T11:46:22.612Z,3.03
2022-08-19T11:48:50.896Z,3.08
2022-08-19T11:51:21.934Z,4.00
2022-08-19T11:53:50.564Z,3.12
2022-08-19T11:56:19.033Z,3.17
2022-08-19T11:58:45.894Z,2.67
2022-08-19T12:01:16.279Z,3.00
2022-08-19T12:03:45.248Z,2.95
2022-08-19T12:06:19.061Z,2.53
2022-08-19T12:08:47.730Z,2.67
2022-08-19T12:11:15.350Z,2.70
2022-08-19T12:13:45.180Z,2.78
2022-08-19T12:16:18.970Z,2.92
2022-08-19T12:18:46.967Z,2.90
2022-08-19T12:21:15.849Z,2.60
2022-08-19T12:23:45.053Z,3.03
2022-08-19T12:26:12.011Z,3.05
2022-08-19T12:28:38.896Z,3.10
2022-08-19T12:31:06.376Z,2.72
2022-08-19T12:33:33.266Z,3.47
2022-08-19T12:36:06.797Z,2.70
2022-08-19T12:38:37.293Z,2.67
2022-08-19T12:41:07.185Z,2.75
2022-08-19T12:43:37.889Z,2.60
2022-08-19T12:46:06.666Z,2.55
2022-08-19T12:48:41.788Z,3.28
2022-08-19T12:51:19.600Z,2.97
2022-08-19T12:53:47.226Z,3.12
2022-08-19T12:56:14.982Z,2.60
2022-08-19T12:58:49.068Z,2.90
2022-08-19T13:01:22.908Z,2.87
2022-08-19T13:03:52.678Z,3.30
2022-08-19T13:06:20.173Z,2.70
2022-08-19T13:08:46.988Z,3.33
2022-08-19T13:11:21.257Z,2.70
2022-08-19T13:13:50.506Z,2.83
2022-08-19T13:16:17.609Z,2.92
2022-08-19T13:18:47.632Z,2.90
2022-08-19T13:21:14.591Z,3.00
2022-08-19T13:23:42.077Z,3.05
2022-08-19T13:26:10.665Z,3.53
2022-08-19T13:28:55.879Z,2.80
2022-08-19T13:31:47.286Z,3.22
2022-08-19T13:34:16.077Z,3.00
2022-08-19T13:36:42.798Z,3.17
2022-08-19T13:39:10.640Z,3.35
2022-08-19T13:41:43.170Z,2.87
2022-08-19T13:44:09.690Z,2.90
2022-08-19T13:46:36.227Z,2.87
2022-08-19T13:49:02.741Z,3.10
2022-08-19T13:51:29.245Z,3.20
2022-08-19T13:53:55.820Z,3.30
2022-08-19T13:56:26.074Z,3.08
2022-08-19T13:58:53.739Z,2.75
2022-08-19T14:01:22.702Z,2.90
2022-08-19T14:03:51.582Z,2.92
2022-08-19T14:06:18.664Z,3.75
2022-08-19T14:08:46.486Z,3.25
2022-08-19T14:11:13.094Z,3.22
2022-08-19T14:13:39.642Z,3.12
2022-08-19T14:16:14.218Z,2.65
2022-08-19T14:18:42.274Z,3.55
2022-08-19T14:21:20.290Z,3.22
2022-08-19T14:23:47.559Z,3.22
2022-08-19T14:26:17.302Z,3.35
2022-08-19T14:28:45.169Z,3.17
2022-08-19T14:31:19.236Z,3.03
2022-08-19T14:33:49.115Z,3.05
2022-08-19T14:36:16.157Z,3.62
2022-08-19T14:38:42.846Z,3.42
2022-08-19T14:41:19.585Z,3.50
2022-08-19T14:43:50.091Z,3.08
2022-08-19T14:46:21.208Z,3.40
2022-08-19T14:48:50.609Z,3.03
2022-08-19T14:51:20.682Z,2.83
2022-08-19T14:53:49.056Z,3.25
2022-08-19T14:56:22.093Z,3.08
2022-08-19T14:58:51.774Z,3.22
2022-08-19T15:01:22.576Z,3.53
2022-08-19T15:03:53.171Z,3.17
2022-08-19T15:06:20.055Z,3.40
2022-08-19T15:08:46.650Z,3.00
2022-08-19T15:11:17.906Z,3.22
2022-08-19T15:13:46.675Z,3.30
2022-08-19T15:16:18.338Z,3.33
2022-08-19T15:18:47.014Z,3.05
2022-08-19T15:21:18.169Z,2.87
2022-08-19T15:23:55.456Z,3.40
2022-08-19T15:26:22.406Z,3.28
2022-08-19T15:28:48.963Z,3.37
2022-08-19T15:31:28.130Z,2.60
2022-08-19T15:33:57.525Z,3.55
2022-08-19T15:36:25.503Z,3.75
2022-08-19T15:38:52.475Z,3.25
2022-08-19T15:41:29.753Z,3.53
2022-08-19T15:44:10.403Z,3.20
2022-08-19T15:46:41.162Z,3.72
2022-08-19T15:49:08.709Z,3.17
2022-08-19T15:51:38.262Z,3.20
2022-08-19T15:54:09.109Z,4.20
2022-08-19T15:58:48.447Z,3.70
2022-08-19T16:01:33.384Z,3.47
2022-08-19T16:04:23.078Z,3.05
2022-08-19T16:06:57.418Z,3.28
2022-08-19T16:09:28.456Z,3.33
2022-08-19T16:12:01.772Z,3.20
2022-08-19T16:14:32.245Z,3.10
2022-08-19T16:16:58.905Z,3.30
2022-08-19T16:19:25.890Z,3.10
2022-08-19T16:21:56.231Z,2.92
2022-08-19T16:24:27.106Z,3.58
2022-08-19T16:26:54.318Z,3.30
2022-08-19T16:29:34.608Z,4.05
2022-08-19T16:32:10.609Z,3.00
2022-08-19T16:34:41.197Z,3.42
2022-08-19T16:37:09.245Z,3.50
2022-08-19T16:39:36.700Z,3.42
2022-08-19T16:42:04.788Z,3.28
2022-08-19T16:44:35.695Z,3.65
2022-08-19T16:47:02.805Z,4.07
2022-08-19T16:49:53.817Z,4.03
2022-08-19T16:52:25.485Z,3.58
2022-08-19T16:54:52.080Z,3.50
2022-08-19T16:57:18.754Z,3.65
2022-08-19T16:59:48.645Z,3.42
2022-08-19T17:02:22.289Z,4.68
2022-08-19T17:04:57.653Z,4.10
2022-08-19T17:07:33.290Z,4.10
2022-08-19T17:10:02.473Z,4.15
2022-08-19T17:12:32.022Z,4.28
2022-08-19T17:15:01.822Z,3.78
2022-08-19T17:17:30.190Z,4.00
2022-08-19T17:19:59.612Z,3.70
2022-08-19T17:22:26.415Z,3.85
2022-08-19T17:24:53.106Z,3.85
2022-08-19T17:27:26.530Z,4.03
2022-08-19T17:29:53.147Z,4.22
2022-08-19T17:32:25.203Z,4.22
2022-08-19T17:34:53.366Z,3.75
2022-08-19T17:37:19.892Z,4.05
2022-08-19T17:39:46.480Z,4.35
2022-08-19T17:42:13.039Z,3.65
2022-08-19T17:44:40.222Z,4.22
2022-08-19T17:47:07.047Z,3.67
2022-08-19T17:49:36.668Z,3.70
2022-08-19T17:52:08.236Z,4.35
2022-08-19T17:54:36.558Z,3.58
2022-08-19T17:57:03.135Z,4.40
2022-08-19T17:59:30.195Z,4.00
2022-08-19T18:01:57.491Z,4.43
2022-08-19T18:04:25.709Z,4.97
2022-08-19T18:06:55.079Z,4.60
2022-08-19T18:09:28.808Z,4.55
2022-08-19T18:12:09.441Z,4.22
2022-08-19T18:14:38.447Z,4.60
2022-08-19T18:17:11.991Z,5.00
2022-08-19T18:19:43.050Z,4.43
2022-08-19T18:23:44.377Z,4.28
2022-08-19T18:26:12.324Z,4.25
2022-08-19T18:28:39.218Z,4.60
2022-08-19T18:31:16.355Z,4.25
2022-08-19T18:33:44.598Z,4.20
2022-08-19T18:36:11.498Z,4.30
2022-08-19T18:38:56.306Z,4.82
2022-08-19T18:41:41.317Z,5.10
2022-08-19T18:44:26.235Z,4.45
2022-08-19T18:47:13.361Z,4.18
2022-08-19T18:49:39.915Z,4.53
2022-08-19T18:52:08.815Z,4.32
2022-08-19T18:54:36.145Z,4.30
2022-08-19T18:57:04.945Z,5.53
2022-08-19T18:59:32.324Z,4.32
2022-08-19T19:02:00.160Z,4.93
2022-08-19T19:04:34.132Z,5.28
2022-08-19T19:07:00.682Z,7.40
2022-08-19T19:09:27.671Z,6.12
2022-08-19T19:11:59.338Z,5.30
2022-08-19T19:14:50.978Z,4.28
2022-08-19T19:17:17.893Z,4.70
2022-08-19T19:19:44.928Z,4.25
2022-08-19T19:22:20.715Z,4.25
2022-08-19T19:24:47.448Z,4.35
2022-08-19T19:27:17.815Z,4.43
2022-08-19T19:29:47.423Z,3.95
2022-08-19T19:32:22.950Z,4.32
2022-08-19T19:34:49.940Z,4.15
2022-08-19T19:37:16.645Z,4.22
2022-08-19T19:39:46.013Z,4.40
2022-08-19T19:42:20.633Z,4.62
2022-08-19T19:44:50.819Z,4.62
2022-08-19T19:47:18.271Z,4.40
2022-08-19T19:50:10.697Z,4.22
2022-08-19T19:52:42.040Z,4.80
2022-08-19T19:55:14.846Z,4.45
2022-08-19T19:57:41.408Z,4.30
2022-08-19T20:00:10.185Z,4.70
2022-08-19T20:02:36.722Z,3.87
2022-08-19T20:05:04.817Z,4.05
2022-08-19T20:07:49.484Z,4.05
2022-08-19T20:10:16.068Z,4.93
2022-08-19T20:12:42.567Z,4.53
2022-08-19T20:15:09.599Z,4.40
2022-08-19T20:17:41.816Z,6.12
2022-08-19T20:20:14.609Z,4.37
2022-08-19T20:22:46.606Z,5.18
2022-08-19T20:25:15.816Z,4.37
2022-08-19T20:27:42.860Z,4.47
2022-08-19T20:30:19.402Z,5.00
2022-08-19T20:32:47.090Z,5.50
2022-08-19T20:35:17.599Z,4.97
2022-08-19T20:37:44.405Z,5.82
2022-08-19T20:40:13.211Z,6.60
2022-08-19T20:42:42.530Z,6.43
2022-08-19T20:45:16.839Z,5.95
2022-08-19T20:48:02.097Z,5.47
2022-08-19T20:50:30.116Z,5.28
2022-08-19T20:52:57.649Z,4.28
2022-08-19T20:55:25.714Z,6.03
2022-08-19T20:57:52.216Z,4.60
2022-08-19T21:00:19.077Z,4.50
2022-08-19T21:02:46.201Z,4.90
2022-08-19T21:05:13.107Z,4.90
2022-08-19T21:07:39.855Z,5.25
2022-08-19T21:10:07.761Z,4.80
2022-08-19T21:12:34.761Z,5.18
2022-08-19T21:15:01.337Z,6.30
2022-08-19T21:17:27.870Z,5.47
2022-08-19T21:19:54.409Z,4.82
2022-08-19T21:22:20.932Z,5.10
2022-08-19T21:24:47.575Z,5.37
2022-08-19T21:27:14.125Z,4.80
2022-08-19T21:29:41.448Z,4.78
2022-08-19T21:32:10.429Z,4.32
2022-08-19T21:34:41.659Z,4.57
2022-08-19T21:37:17.590Z,4.75
2022-08-19T21:39:52.535Z,5.32
2022-08-19T21:42:19.616Z,4.50
2022-08-19T21:44:46.217Z,6.35
2022-08-19T21:47:12.769Z,5.07
2022-08-19T21:49:39.337Z,4.70
2022-08-19T21:52:06.491Z,5.30
2022-08-19T21:54:37.651Z,4.60
2022-08-19T21:57:10.213Z,4.68
2022-08-19T21:59:44.035Z,4.60
2022-08-19T22:02:20.399Z,4.65
2022-08-19T22:04:52.315Z,4.35
2022-08-19T22:07:20.912Z,3.95
2022-08-19T22:09:49.940Z,4.80
2022-08-19T22:12:38.695Z,5.20
2022-08-19T22:15:14.547Z,4.68
2022-08-19T22:17:41.935Z,5.00
2022-08-19T22:20:16.386Z,4.60
2022-08-19T22:23:04.971Z,4.62
2022-08-19T22:25:41.636Z,5.00
2022-08-19T22:28:12.622Z,5.28
2022-08-19T22:30:43.133Z,5.22
2022-08-19T22:33:14.714Z,4.90
2022-08-19T22:35:42.124Z,4.90
2022-08-19T22:38:11.177Z,4.70
2022-08-19T22:40:45.212Z,4.72
2022-08-19T22:43:17.385Z,4.95
2022-08-19T22:45:46.399Z,4.50
2022-08-19T22:48:18.723Z,4.50
2022-08-19T22:52:16.441Z,4.22
2022-08-19T22:54:49.074Z,4.62
2022-08-19T22:57:18.822Z,5.18
2022-08-19T22:59:50.469Z,4.32
2022-08-19T23:02:33.836Z,4.78
2022-08-19T23:05:02.917Z,4.65
2022-08-19T23:07:29.452Z,4.57
2022-08-19T23:09:56.525Z,5.03
2022-08-19T23:12:33.146Z,4.45
2022-08-19T23:15:08.829Z,4.68
2022-08-19T23:17:36.306Z,5.57
2022-08-19T23:20:07.298Z,4.45
2022-08-19T23:22:36.152Z,4.95
2022-08-19T23:25:08.809Z,4.40
2022-08-19T23:27:53.484Z,4.65
2022-08-19T23:30:26.345Z,5.10
2022-08-19T23:32:56.461Z,4.37
2022-08-19T23:35:24.879Z,4.62
2022-08-19T23:37:52.063Z,3.62
2022-08-19T23:40:20.931Z,4.82
2022-08-19T23:42:50.161Z,4.25
2022-08-19T23:45:23.800Z,4.62
2022-08-19T23:47:53.347Z,4.50
2022-08-19T23:50:21.644Z,4.30
2022-08-19T23:52:53.752Z,4.55
2022-08-19T23:55:26.601Z,4.68
2022-08-19T23:57:53.181Z,4.47
